createdAt,value
2019-02-27T00:01:14.675Z,5.10
2019-02-27T00:03:42.679Z,7.65
2019-02-27T00:06:12.909Z,7.08
2019-02-27T00:08:42.096Z,5.03
2019-02-27T00:11:12.400Z,4.28
2019-02-27T00:13:41.448Z,6.85
2019-02-27T00:16:11.166Z,5.60
2019-02-27T00:18:40.510Z,5.12
2019-02-27T00:21:11.039Z,7.00
2019-02-27T00:23:40.116Z,5.40
2019-02-27T00:26:09.620Z,5.40
2019-02-27T00:28:38.586Z,5.00
2019-02-27T00:31:11.193Z,6.30
2019-02-27T00:33:38.065Z,5.50
2019-02-27T00:36:06.953Z,5.00
2019-02-27T00:38:35.893Z,5.30
2019-02-27T00:41:04.704Z,5.35
2019-02-27T00:43:33.607Z,4.33
2019-02-27T00:46:02.493Z,4.72
2019-02-27T00:48:31.263Z,6.30
2019-02-27T00:51:00.061Z,8.55
2019-02-27T00:53:28.956Z,4.97
2019-02-27T00:55:57.798Z,4.45
2019-02-27T00:58:27.019Z,5.30
2019-02-27T01:00:56.588Z,4.45
2019-02-27T01:03:26.255Z,5.80
2019-02-27T01:05:55.562Z,5.58
2019-02-27T01:08:25.135Z,5.53
2019-02-27T01:10:55.018Z,6.35
2019-02-27T01:13:23.966Z,4.87
2019-02-27T01:15:52.818Z,5.22
2019-02-27T01:18:21.716Z,4.42
2019-02-27T01:20:50.523Z,5.28
2019-02-27T01:23:19.362Z,4.42
2019-02-27T01:25:48.282Z,5.78
2019-02-27T01:28:17.239Z,4.97
2019-02-27T01:30:46.079Z,5.45
2019-02-27T01:33:14.982Z,6.40
2019-02-27T01:35:43.737Z,6.92
2019-02-27T01:38:12.591Z,5.83
2019-02-27T01:40:41.423Z,4.00
2019-02-27T01:43:10.333Z,6.33
2019-02-27T01:45:39.195Z,6.60
2019-02-27T01:48:09.178Z,4.40
2019-02-27T01:50:39.035Z,6.08
2019-02-27T01:53:10.961Z,4.35
2019-02-27T01:55:39.915Z,4.45
2019-02-27T01:58:09.502Z,4.95
2019-02-27T02:00:39.198Z,5.55
2019-02-27T02:03:08.092Z,5.92
2019-02-27T02:05:36.945Z,4.20
2019-02-27T02:08:06.386Z,3.83
2019-02-27T02:10:35.159Z,4.37
2019-02-27T02:13:14.934Z,4.55
2019-02-27T02:16:18.530Z,5.08
2019-02-27T02:19:14.122Z,4.28
2019-02-27T02:22:30.033Z,3.87
2019-02-27T02:25:37.843Z,4.12
2019-02-27T02:28:48.854Z,4.03
2019-02-27T02:31:32.017Z,5.78
2019-02-27T02:34:47.468Z,4.37
2019-02-27T02:37:54.491Z,3.65
2019-02-27T02:40:54.775Z,4.72
2019-02-27T02:44:03.891Z,3.85
2019-02-27T02:47:07.939Z,5.00
2019-02-27T02:50:24.241Z,4.55
2019-02-27T02:53:52.212Z,4.65
2019-02-27T02:56:37.606Z,5.05
2019-02-27T02:59:42.574Z,6.25
2019-02-27T03:02:57.524Z,4.22
2019-02-27T03:06:06.839Z,3.93
2019-02-27T03:09:44.065Z,3.90
2019-02-27T03:12:52.281Z,4.05
2019-02-27T03:15:42.456Z,4.75
2019-02-27T03:19:05.130Z,6.42
2019-02-27T03:22:15.444Z,5.72
2019-02-27T03:25:12.039Z,4.20
2019-02-27T03:28:30.917Z,5.37
2019-02-27T03:31:16.291Z,3.83
2019-02-27T03:34:13.662Z,5.37
2019-02-27T03:37:28.648Z,3.90
2019-02-27T03:40:23.618Z,4.00
2019-02-27T03:43:10.043Z,5.85
2019-02-27T03:46:06.192Z,3.80
2019-02-27T03:49:09.701Z,5.10
2019-02-27T03:52:28.647Z,4.25
2019-02-27T03:55:42.104Z,4.17
2019-02-27T03:59:07.659Z,4.47
2019-02-27T04:01:57.382Z,3.80
2019-02-27T04:04:40.404Z,6.58
2019-02-27T04:08:08.322Z,3.80
2019-02-27T04:10:35.858Z,4.10
2019-02-27T04:13:04.694Z,5.58
2019-02-27T04:15:33.655Z,4.15
2019-02-27T04:18:01.121Z,3.83
2019-02-27T04:20:29.889Z,4.33
2019-02-27T04:22:58.710Z,5.90
2019-02-27T04:25:31.138Z,7.10
2019-02-27T04:27:58.208Z,4.00
2019-02-27T04:30:26.983Z,5.20
2019-02-27T04:32:55.785Z,4.60
2019-02-27T04:35:24.679Z,4.58
2019-02-27T04:37:54.408Z,5.83
2019-02-27T04:40:23.675Z,5.47
2019-02-27T04:42:52.560Z,5.75
2019-02-27T04:45:21.399Z,5.95
2019-02-27T04:47:50.239Z,7.60
2019-02-27T04:50:19.025Z,6.33
2019-02-27T04:52:47.923Z,5.20
2019-02-27T04:55:16.693Z,4.62
2019-02-27T04:57:45.493Z,4.33
2019-02-27T05:00:14.376Z,4.05
2019-02-27T05:02:43.287Z,6.05
2019-02-27T05:05:12.213Z,4.03
2019-02-27T05:07:43.169Z,5.80
2019-02-27T05:10:12.047Z,5.87
2019-02-27T05:12:40.932Z,4.30
2019-02-27T05:15:09.748Z,3.95
2019-02-27T05:17:38.543Z,5.33
2019-02-27T05:20:11.601Z,4.78
2019-02-27T05:22:38.186Z,4.28
2019-02-27T05:25:07.030Z,5.58
2019-02-27T05:27:35.952Z,6.03
2019-02-27T05:30:05.292Z,4.60
2019-02-27T05:32:34.091Z,4.28
2019-02-27T05:35:02.926Z,4.50
2019-02-27T05:37:31.866Z,5.35
2019-02-27T05:40:00.594Z,6.25
2019-02-27T05:42:29.464Z,4.75
2019-02-27T05:44:58.250Z,5.20
2019-02-27T05:47:27.162Z,4.05
2019-02-27T05:49:57.927Z,4.10
2019-02-27T05:52:26.804Z,5.58
2019-02-27T05:54:55.601Z,6.03
2019-02-27T05:57:24.403Z,6.08
2019-02-27T05:59:53.186Z,4.60
2019-02-27T06:02:22.123Z,5.67
2019-02-27T06:04:50.961Z,6.03
2019-02-27T06:07:19.805Z,5.47
2019-02-27T06:09:49.066Z,5.33
2019-02-27T06:12:18.070Z,5.45
2019-02-27T06:14:46.883Z,5.37
2019-02-27T06:17:15.737Z,6.55
2019-02-27T06:19:44.671Z,6.47
2019-02-27T06:22:13.497Z,4.20
2019-02-27T06:24:43.132Z,6.50
2019-02-27T06:27:12.947Z,6.97
2019-02-27T06:29:41.770Z,3.35
2019-02-27T06:32:12.380Z,5.10
2019-02-27T06:34:41.248Z,5.33
2019-02-27T06:37:10.138Z,5.08
2019-02-27T06:39:39.038Z,5.53
2019-02-27T06:42:08.030Z,6.05
2019-02-27T06:44:39.915Z,7.10
2019-02-27T06:47:08.750Z,5.55
2019-02-27T06:49:37.660Z,5.90
2019-02-27T06:52:09.048Z,5.28
2019-02-27T06:54:37.805Z,5.25
2019-02-27T06:57:07.805Z,8.33
2019-02-27T06:59:38.547Z,5.80
2019-02-27T07:02:07.465Z,4.45
2019-02-27T07:04:36.446Z,4.78
2019-02-27T07:07:06.798Z,5.95
2019-02-27T07:09:35.753Z,4.42
2019-02-27T07:12:04.605Z,7.03
2019-02-27T07:14:33.554Z,9.40
2019-02-27T07:17:02.515Z,10.45
2019-02-27T07:19:31.294Z,8.23
2019-02-27T07:22:00.152Z,8.03
2019-02-27T07:24:30.553Z,7.40
2019-02-27T07:26:59.666Z,6.40
2019-02-27T07:29:28.465Z,10.15
2019-02-27T07:31:57.314Z,8.05
2019-02-27T07:34:26.197Z,7.08
2019-02-27T07:36:55.064Z,11.78
2019-02-27T07:39:23.906Z,9.53
2019-02-27T07:41:52.822Z,6.40
2019-02-27T07:44:21.777Z,8.15
2019-02-27T07:46:50.901Z,6.22
2019-02-27T07:49:19.992Z,8.95
2019-02-27T07:51:48.856Z,8.15
2019-02-27T07:54:17.675Z,8.60
2019-02-27T07:56:46.534Z,10.90
2019-02-27T07:59:15.385Z,9.58
2019-02-27T08:01:44.337Z,23.57
2019-02-27T08:04:13.146Z,24.07
2019-02-27T08:06:42.097Z,26.20
2019-02-27T08:09:11.365Z,25.88
2019-02-27T08:11:40.247Z,24.90
2019-02-27T08:14:09.109Z,25.77
2019-02-27T08:16:38.073Z,27.10
2019-02-27T08:19:08.975Z,25.50
2019-02-27T08:21:37.597Z,22.95
2019-02-27T08:24:07.548Z,23.83
2019-02-27T08:26:37.046Z,19.62
2019-02-27T08:29:05.849Z,22.30
2019-02-27T08:31:34.781Z,17.82
2019-02-27T08:34:03.595Z,21.35
2019-02-27T08:36:32.434Z,20.30
2019-02-27T08:39:01.316Z,18.65
2019-02-27T08:41:31.493Z,20.40
2019-02-27T08:44:00.780Z,16.73
2019-02-27T08:46:29.606Z,22.10
2019-02-27T08:48:58.454Z,19.90
2019-02-27T08:51:27.382Z,19.37
2019-02-27T08:53:58.984Z,17.92
2019-02-27T08:56:27.060Z,17.07
2019-02-27T08:58:56.075Z,16.75
2019-02-27T09:01:25.046Z,20.43
2019-02-27T09:03:53.866Z,18.50
2019-02-27T09:06:27.273Z,20.80
2019-02-27T09:08:53.552Z,18.12
2019-02-27T09:11:22.582Z,40.08
2019-02-27T09:13:51.645Z,28.57
2019-02-27T09:16:23.045Z,43.05
2019-02-27T09:18:51.240Z,22.10
2019-02-27T09:21:20.277Z,21.30
2019-02-27T09:23:49.101Z,18.32
2019-02-27T09:26:17.887Z,17.23
2019-02-27T09:28:46.773Z,19.17
2019-02-27T09:31:15.629Z,16.85
2019-02-27T09:33:44.609Z,18.15
2019-02-27T09:36:13.456Z,18.92
2019-02-27T09:38:42.249Z,18.70
2019-02-27T09:41:12.422Z,18.98
2019-02-27T09:43:41.963Z,20.30
2019-02-27T09:46:10.859Z,17.60
2019-02-27T09:48:40.203Z,19.98
2019-02-27T09:51:09.058Z,19.75
2019-02-27T09:53:37.894Z,24.12
2019-02-27T09:56:06.712Z,17.40
2019-02-27T09:58:36.064Z,15.00
2019-02-27T10:01:16.311Z,16.37
2019-02-27T10:03:45.347Z,17.73
2019-02-27T10:06:14.246Z,18.52
2019-02-27T10:08:43.100Z,16.02
2019-02-27T10:11:12.017Z,21.62
2019-02-27T10:13:40.914Z,18.00
2019-02-27T10:16:09.818Z,16.10
2019-02-27T10:18:38.842Z,16.85
2019-02-27T10:21:09.366Z,23.02
2019-02-27T10:23:38.221Z,17.20
2019-02-27T10:26:07.060Z,17.80
2019-02-27T10:28:39.703Z,13.10
2019-02-27T10:31:06.707Z,15.43
2019-02-27T10:33:35.625Z,19.60
2019-02-27T10:36:04.528Z,15.20
2019-02-27T10:38:33.433Z,16.62
2019-02-27T10:41:02.270Z,15.93
2019-02-27T10:43:31.317Z,22.07
2019-02-27T10:46:00.153Z,26.10
2019-02-27T10:48:29.224Z,20.20
2019-02-27T10:50:58.043Z,30.75
2019-02-27T10:53:27.926Z,22.13
2019-02-27T10:55:56.720Z,17.80
2019-02-27T10:58:25.816Z,18.42
2019-02-27T11:00:54.719Z,24.45
2019-02-27T11:03:26.414Z,20.20
2019-02-27T11:05:55.581Z,18.10
2019-02-27T11:08:28.920Z,16.85
2019-02-27T11:10:55.096Z,19.05
2019-02-27T11:13:24.204Z,14.35
2019-02-27T11:15:53.274Z,13.70
2019-02-27T11:18:22.180Z,18.48
2019-02-27T11:20:51.136Z,14.90
2019-02-27T11:23:19.982Z,16.77
2019-02-27T11:25:48.978Z,17.35
2019-02-27T11:28:17.866Z,13.08
2019-02-27T11:30:46.861Z,16.85
2019-02-27T11:33:25.047Z,12.28
2019-02-27T11:35:46.497Z,17.42
2019-02-27T11:38:15.529Z,16.07
2019-02-27T11:40:44.388Z,21.07
2019-02-27T11:43:13.129Z,16.05
2019-02-27T11:45:42.051Z,14.18
2019-02-27T11:48:10.937Z,17.42
2019-02-27T11:50:39.895Z,19.02
2019-02-27T11:53:08.783Z,16.02
2019-02-27T11:55:37.639Z,16.42
2019-02-27T11:58:06.473Z,16.27
2019-02-27T12:00:35.488Z,18.23
2019-02-27T12:03:04.465Z,22.65
2019-02-27T12:05:34.468Z,18.48
2019-02-27T12:08:03.465Z,15.28
2019-02-27T12:10:32.349Z,16.17
2019-02-27T12:13:01.742Z,20.60
2019-02-27T12:15:30.747Z,15.15
2019-02-27T12:18:01.804Z,16.30
2019-02-27T12:20:30.369Z,15.35
2019-02-27T12:22:59.230Z,15.85
2019-02-27T12:25:30.037Z,11.78
2019-02-27T12:27:58.512Z,14.87
2019-02-27T12:30:27.722Z,12.80
2019-02-27T12:32:57.042Z,12.85
2019-02-27T12:35:27.946Z,14.00
2019-02-27T12:37:56.790Z,11.25
2019-02-27T12:40:25.605Z,12.25
2019-02-27T12:42:54.596Z,13.93
2019-02-27T12:45:25.775Z,12.15
2019-02-27T12:47:54.871Z,12.88
2019-02-27T12:50:26.870Z,13.48
2019-02-27T12:52:54.863Z,14.13
2019-02-27T12:55:23.762Z,12.15
2019-02-27T12:57:53.089Z,11.20
2019-02-27T13:00:24.344Z,15.00
2019-02-27T13:02:53.311Z,11.35
2019-02-27T13:05:26.393Z,10.75
2019-02-27T13:07:53.284Z,11.55
2019-02-27T13:10:22.568Z,10.05
2019-02-27T13:12:51.923Z,12.73
2019-02-27T13:15:22.691Z,10.93
2019-02-27T13:17:56.278Z,13.28
2019-02-27T13:20:23.868Z,12.47
2019-02-27T13:22:52.964Z,15.48
2019-02-27T13:25:24.148Z,21.02
2019-02-27T13:27:52.457Z,11.40
2019-02-27T13:30:21.510Z,13.60
2019-02-27T13:32:50.445Z,11.22
2019-02-27T13:35:20.084Z,11.48
2019-02-27T13:37:50.052Z,11.85
2019-02-27T13:40:19.594Z,12.47
2019-02-27T13:42:52.388Z,11.03
2019-02-27T13:45:21.147Z,13.00
2019-02-27T13:47:50.109Z,10.30
2019-02-27T13:50:22.377Z,7.17
2019-02-27T13:52:50.673Z,8.35
2019-02-27T13:55:19.793Z,6.97
2019-02-27T13:57:48.857Z,5.45
2019-02-27T14:00:20.834Z,8.85
2019-02-27T14:02:50.675Z,5.67
2019-02-27T14:05:19.579Z,6.72
2019-02-27T14:07:48.542Z,6.20
2019-02-27T14:10:20.524Z,5.42
2019-02-27T14:12:48.256Z,6.83
2019-02-27T14:15:17.485Z,4.75
2019-02-27T14:17:46.486Z,5.70
2019-02-27T14:20:17.006Z,4.97
2019-02-27T14:22:45.846Z,4.92
2019-02-27T14:25:17.042Z,4.87
2019-02-27T14:27:47.557Z,5.17
2019-02-27T14:30:22.014Z,5.40
2019-02-27T14:32:51.038Z,5.70
2019-02-27T14:35:19.920Z,5.58
2019-02-27T14:37:50.158Z,5.33
2019-02-27T14:40:20.282Z,6.05
2019-02-27T14:42:54.012Z,5.60
2019-02-27T14:45:20.971Z,4.20
2019-02-27T14:47:49.815Z,6.87
2019-02-27T14:50:19.863Z,9.50
2019-02-27T14:52:50.019Z,4.67
2019-02-27T14:55:19.236Z,6.28
2019-02-27T14:57:51.092Z,4.80
2019-02-27T15:00:24.514Z,4.60
2019-02-27T15:02:55.628Z,5.28
2019-02-27T15:05:24.281Z,4.05
2019-02-27T15:07:54.890Z,4.37
2019-02-27T15:10:24.057Z,5.80
2019-02-27T15:12:55.096Z,4.72
2019-02-27T15:15:28.126Z,4.95
2019-02-27T15:17:57.157Z,3.67
2019-02-27T15:20:26.587Z,5.20
2019-02-27T15:22:55.569Z,4.78
2019-02-27T15:25:24.546Z,5.55
2019-02-27T15:27:58.378Z,4.25
2019-02-27T15:30:25.573Z,4.33
2019-02-27T15:32:54.529Z,5.40
2019-02-27T15:35:23.512Z,5.37
2019-02-27T15:37:52.442Z,5.15
2019-02-27T15:40:22.552Z,6.12
2019-02-27T15:42:51.470Z,4.83
2019-02-27T15:45:20.894Z,5.40
2019-02-27T15:47:49.754Z,5.70
2019-02-27T15:50:22.653Z,5.75
2019-02-27T15:52:50.672Z,6.10
2019-02-27T15:55:19.670Z,5.70
2019-02-27T15:57:52.050Z,5.28
2019-02-27T16:00:20.982Z,6.17
2019-02-27T16:02:49.813Z,5.08
2019-02-27T16:05:18.753Z,4.92
2019-02-27T16:07:49.436Z,6.97
2019-02-27T16:10:19.949Z,6.10
2019-02-27T16:12:48.878Z,9.88
2019-02-27T16:15:18.042Z,6.12
2019-02-27T16:17:47.276Z,9.50
2019-02-27T16:20:17.117Z,6.60
2019-02-27T16:22:46.027Z,7.15
2019-02-27T16:25:19.801Z,5.33
2019-02-27T16:27:47.611Z,6.42
2019-02-27T16:30:21.535Z,7.67
2019-02-27T16:32:50.518Z,5.97
2019-02-27T16:35:19.545Z,4.37
2019-02-27T16:37:48.900Z,4.33
2019-02-27T16:40:18.894Z,5.83
2019-02-27T16:42:48.194Z,7.67
2019-02-27T16:45:18.744Z,3.77
2019-02-27T16:47:47.620Z,3.37
2019-02-27T16:50:24.555Z,3.92
2019-02-27T16:52:51.951Z,5.15
2019-02-27T16:55:22.549Z,4.95
2019-02-27T16:57:56.563Z,6.28
2019-02-27T17:00:26.925Z,8.38
2019-02-27T17:02:57.074Z,3.62
2019-02-27T17:05:26.146Z,9.50
2019-02-27T17:08:00.324Z,6.53
2019-02-27T17:10:29.381Z,66.82
2019-02-27T17:12:58.746Z,61.50
2019-02-27T17:15:27.732Z,56.02
2019-02-27T17:17:56.858Z,46.80
2019-02-27T17:20:25.855Z,25.48
2019-02-27T17:22:54.758Z,30.10
2019-02-27T17:25:28.971Z,24.60
2019-02-27T17:27:54.917Z,29.15
2019-02-27T17:30:26.851Z,25.00
2019-02-27T17:32:55.746Z,27.70
2019-02-27T17:35:24.689Z,24.37
2019-02-27T17:37:53.744Z,24.85
2019-02-27T17:40:22.826Z,31.02
2019-02-27T17:42:53.571Z,23.75
2019-02-27T17:45:22.803Z,21.95
2019-02-27T17:47:51.742Z,22.75
2019-02-27T17:50:20.743Z,18.67
2019-02-27T17:52:49.829Z,18.87
2019-02-27T17:55:19.315Z,20.70
2019-02-27T17:57:48.265Z,20.32
2019-02-27T18:00:28.477Z,22.82
2019-02-27T18:02:57.817Z,18.00
2019-02-27T18:05:26.823Z,16.70
2019-02-27T18:07:55.836Z,17.00
2019-02-27T18:10:24.891Z,15.18
2019-02-27T18:12:54.004Z,16.48
2019-02-27T18:15:23.324Z,16.37
2019-02-27T18:17:52.624Z,19.20
2019-02-27T18:20:25.547Z,19.00
2019-02-27T18:22:52.768Z,14.78
2019-02-27T18:25:21.708Z,12.35
2019-02-27T18:27:50.778Z,14.60
2019-02-27T18:30:20.048Z,15.03
2019-02-27T18:32:49.469Z,17.27
2019-02-27T18:35:18.946Z,16.87
2019-02-27T18:37:53.384Z,13.35
2019-02-27T18:40:20.255Z,15.60
2019-02-27T18:42:55.190Z,14.05
2019-02-27T18:45:20.960Z,15.13
2019-02-27T18:47:50.619Z,10.60
2019-02-27T18:50:19.799Z,14.50
2019-02-27T18:52:50.152Z,9.45
2019-02-27T18:55:19.413Z,10.82
2019-02-27T18:57:48.511Z,12.63
2019-02-27T19:00:20.948Z,12.05
2019-02-27T19:02:53.202Z,14.18
2019-02-27T19:05:22.867Z,8.95
2019-02-27T19:07:55.009Z,10.60
2019-02-27T19:10:23.138Z,10.18
2019-02-27T19:12:52.230Z,11.57
2019-02-27T19:15:22.206Z,10.35
2019-02-27T19:17:51.732Z,10.28
2019-02-27T19:20:24.686Z,9.95
2019-02-27T19:22:55.046Z,9.65
2019-02-27T19:25:24.546Z,9.88
2019-02-27T19:27:54.957Z,11.38
2019-02-27T19:30:28.081Z,9.35
2019-02-27T19:33:01.577Z,10.28
2019-02-27T19:35:30.553Z,8.78
2019-02-27T19:38:00.701Z,8.95
2019-02-27T19:40:31.345Z,8.98
2019-02-27T19:43:02.682Z,7.95
2019-02-27T19:45:35.900Z,9.93
2019-02-27T19:50:35.078Z,9.28
2019-02-27T19:53:06.909Z,10.58
2019-02-27T19:55:36.529Z,9.08
2019-02-27T19:58:08.019Z,7.97
2019-02-27T20:00:47.635Z,8.55
2019-02-27T20:03:10.055Z,12.40
2019-02-27T20:05:40.264Z,12.82
2019-02-27T20:08:11.087Z,9.95
2019-02-27T20:10:40.515Z,8.85
2019-02-27T20:13:10.759Z,12.33
2019-02-27T20:15:42.780Z,6.55
2019-02-27T20:18:12.579Z,7.92
2019-02-27T20:20:43.037Z,6.83
2019-02-27T20:23:13.241Z,6.12
2019-02-27T20:25:44.566Z,7.75
2019-02-27T20:28:14.800Z,9.23
2019-02-27T20:30:47.126Z,9.60
2019-02-27T20:33:17.555Z,6.22
2019-02-27T20:35:47.966Z,6.00
2019-02-27T20:38:18.312Z,8.98
2019-02-27T20:40:49.130Z,8.90
2019-02-27T20:43:19.347Z,7.47
2019-02-27T20:45:49.492Z,7.67
2019-02-27T20:48:19.436Z,7.45
2019-02-27T20:50:49.839Z,7.75
2019-02-27T20:53:20.966Z,8.85
2019-02-27T20:55:52.021Z,7.37
2019-02-27T20:58:22.245Z,5.60
2019-02-27T21:00:52.707Z,7.22
2019-02-27T21:03:26.758Z,8.43
2019-02-27T21:05:53.761Z,6.70
2019-02-27T21:08:23.286Z,8.43
2019-02-27T21:10:55.304Z,5.90
2019-02-27T21:13:23.136Z,7.00
2019-02-27T21:15:52.415Z,7.90
2019-02-27T21:18:21.840Z,9.93
2019-02-27T21:20:51.196Z,6.53
2019-02-27T21:23:20.751Z,6.92
2019-02-27T21:25:50.531Z,5.95
2019-02-27T21:28:21.129Z,8.75
2019-02-27T21:30:52.296Z,7.42
2019-02-27T21:33:22.897Z,4.95
2019-02-27T21:35:52.458Z,8.55
2019-02-27T21:38:24.705Z,6.70
2019-02-27T21:40:54.362Z,7.10
2019-02-27T21:43:25.597Z,5.85
2019-02-27T21:45:54.993Z,6.15
2019-02-27T21:48:26.873Z,5.97
2019-02-27T21:50:55.144Z,7.00
2019-02-27T21:53:26.148Z,5.20
2019-02-27T21:55:54.871Z,6.15
2019-02-27T21:58:23.846Z,5.55
2019-02-27T22:00:52.679Z,6.00
2019-02-27T22:03:21.706Z,4.97
2019-02-27T22:05:52.975Z,4.85
2019-02-27T22:08:21.562Z,6.90
2019-02-27T22:10:53.545Z,4.45
2019-02-27T22:13:28.960Z,5.67
2019-02-27T22:15:55.877Z,6.70
2019-02-27T22:18:23.210Z,5.30
2019-02-27T22:20:52.050Z,7.72
2019-02-27T22:23:20.981Z,4.58
2019-02-27T22:25:49.914Z,5.30
2019-02-27T22:28:20.114Z,4.80
2019-02-27T22:30:49.716Z,4.78
2019-02-27T22:33:22.005Z,8.23
2019-02-27T22:35:49.350Z,9.78
2019-02-27T22:38:18.136Z,7.80
2019-02-27T22:40:47.035Z,8.48
2019-02-27T22:43:16.105Z,7.70
2019-02-27T22:45:44.942Z,8.55
2019-02-27T22:48:13.835Z,7.17
2019-02-27T22:50:42.733Z,6.28
2019-02-27T22:53:11.641Z,6.83
2019-02-27T22:55:42.164Z,8.40
2019-02-27T22:58:11.148Z,6.67
2019-02-27T23:01:09.765Z,8.70
2019-02-27T23:03:42.016Z,6.87
2019-02-27T23:06:12.245Z,8.17
2019-02-27T23:08:41.626Z,6.35
2019-02-27T23:11:10.515Z,7.30
2019-02-27T23:13:39.347Z,11.15
2019-02-27T23:16:08.194Z,5.80
2019-02-27T23:18:37.434Z,7.65
2019-02-27T23:21:07.624Z,5.90
2019-02-27T23:23:36.741Z,7.97
2019-02-27T23:26:06.282Z,5.75
2019-02-27T23:28:35.463Z,7.45
2019-02-27T23:31:04.388Z,6.37
2019-02-27T23:33:35.905Z,4.92
2019-02-27T23:36:03.888Z,5.72
2019-02-27T23:38:34.716Z,7.67
2019-02-27T23:41:03.512Z,5.95
2019-02-27T23:43:34.004Z,7.80
2019-02-27T23:46:03.097Z,6.28
2019-02-27T23:48:35.902Z,4.37
2019-02-27T23:51:02.690Z,6.53
2019-02-27T23:53:31.611Z,6.62
2019-02-27T23:56:00.553Z,4.95
2019-02-27T23:58:30.334Z,8.95
